Time,TemperatureF,DewpointF,PressureIn,WindDirection,WindDirectionDegrees,WindSpeedMPH,WindSpeedGustMPH,Humidity,HourlyPrecipIn,Conditions,Clouds,dailyrainin,SoftwareType,DateUTC
2013-01-07 00:15:00,41.6,29.0,30.24,North,4,4.0,5.0,61,0.00,,,0.00,weatherlink.com 1.10,2013-01-07 05:15:00,
2013-01-07 00:29:00,40.4,29.0,30.24,West,267,0.0,0.0,63,0.00,,,0.00,weatherlink.com 1.10,2013-01-07 05:29:00,
2013-01-07 00:44:00,39.4,28.0,30.24,NE,34,2.0,3.0,64,0.00,,,0.00,weatherlink.com 1.10,2013-01-07 05:44:00,
2013-01-07 00:59:00,40.8,29.0,30.24,NW,317,0.0,5.0,62,0.00,,,0.00,weatherlink.com 1.10,2013-01-07 05:59:00,
2013-01-07 01:14:00,40.1,28.0,30.23,WNW,294,0.0,4.0,63,0.00,,,0.00,weatherlink.com 1.10,2013-01-07 06:14:00,
2013-01-07 01:29:00,38.5,28.0,30.24,North,6,2.0,2.0,67,0.00,,,0.00,weatherlink.com 1.10,2013-01-07 06:29:00,
2013-01-07 01:44:00,38.5,28.0,30.24,NE,48,1.0,2.0,67,0.00,,,0.00,weatherlink.com 1.10,2013-01-07 06:44:00,
2013-01-07 01:59:00,38.3,29.0,30.25,NNE,24,0.0,2.0,68,0.00,,,0.00,weatherlink.com 1.10,2013-01-07 06:59:00,
2013-01-07 02:14:00,37.5,28.0,30.26,NE,35,1.0,3.0,69,0.00,,,0.00,weatherlink.com 1.10,2013-01-07 07:14:00,
2013-01-07 02:29:00,36.9,28.0,30.27,NE,50,2.0,2.0,70,0.00,,,0.00,weatherlink.com 1.10,2013-01-07 07:29:00,
2013-01-07 02:44:00,36.7,28.0,30.28,NNE,32,0.0,2.0,70,0.00,,,0.00,weatherlink.com 1.10,2013-01-07 07:44:00,
2013-01-07 02:59:00,36.9,27.0,30.29,North,353,0.0,2.0,68,0.00,,,0.00,weatherlink.com 1.10,2013-01-07 07:59:00,
2013-01-07 03:14:00,36.7,27.0,30.29,NW,325,1.0,3.0,68,0.00,,,0.00,weatherlink.com 1.10,2013-01-07 08:14:00,
2013-01-07 03:29:00,37.0,26.0,30.29,North,349,2.0,7.0,65,0.00,,,0.00,weatherlink.com 1.10,2013-01-07 08:29:00,
2013-01-07 03:44:00,37.3,26.0,30.29,NNW,341,1.0,9.0,64,0.00,,,0.00,weatherlink.com 1.10,2013-01-07 08:44:00,
2013-01-07 03:59:00,36.5,26.0,30.31,North,359,1.0,3.0,66,0.00,,,0.00,weatherlink.com 1.10,2013-01-07 08:59:00,
2013-01-07 04:15:00,35.3,25.0,30.30,NNE,24,1.0,2.0,67,0.00,,,0.00,weatherlink.com 1.10,2013-01-07 09:15:00,
2013-01-07 04:30:00,34.5,25.0,30.29,North,8,0.0,2.0,68,0.00,,,0.00,weatherlink.com 1.10,2013-01-07 09:30:00,
2013-01-07 04:45:00,34.5,25.0,30.30,NNW,339,0.0,2.0,68,0.00,,,0.00,weatherlink.com 1.10,2013-01-07 09:45:00,
2013-01-07 05:00:00,34.7,25.0,30.29,NNW,338,0.0,3.0,68,0.00,,,0.00,weatherlink.com 1.10,2013-01-07 10:00:00,
2013-01-07 05:15:00,32.5,25.0,30.30,NNW,338,0.0,1.0,73,0.00,,,0.00,weatherlink.com 1.10,2013-01-07 10:15:00,
2013-01-07 05:30:00,31.7,25.0,30.30,NE,34,3.0,3.0,75,0.00,,,0.00,weatherlink.com 1.10,2013-01-07 10:30:00,
2013-01-07 05:45:00,33.5,25.0,30.30,NNW,340,2.0,3.0,70,0.00,,,0.00,weatherlink.com 1.10,2013-01-07 10:45:00,
2013-01-07 06:00:00,34.5,25.0,30.31,NW,318,4.0,5.0,69,0.00,,,0.00,weatherlink.com 1.10,2013-01-07 11:00:00,
2013-01-07 06:15:00,34.3,25.0,30.32,NE,46,0.0,1.0,69,0.00,,,0.00,weatherlink.com 1.10,2013-01-07 11:15:00,
2013-01-07 06:30:00,31.6,24.0,30.33,WNW,296,0.0,2.0,74,0.00,,,0.00,weatherlink.com 1.10,2013-01-07 11:30:00,
2013-01-07 06:45:00,29.9,24.0,30.34,ESE,123,0.0,1.0,78,0.00,,,0.00,weatherlink.com 1.10,2013-01-07 11:45:00,
2013-01-07 07:00:00,29.3,24.0,30.35,ESE,123,0.0,1.0,80,0.00,,,0.00,weatherlink.com 1.10,2013-01-07 12:00:00,
2013-01-07 07:15:00,31.5,24.0,30.36,SW,232,1.0,3.0,75,0.00,,,0.00,weatherlink.com 1.10,2013-01-07 12:15:00,
2013-01-07 07:30:00,29.0,24.0,30.38,ESE,114,0.0,1.0,80,0.00,,,0.00,weatherlink.com 1.10,2013-01-07 12:30:00,
2013-01-07 07:45:00,28.4,23.0,30.38,ESE,114,0.0,1.0,81,0.00,,,0.00,weatherlink.com 1.10,2013-01-07 12:45:00,
2013-01-07 08:00:00,27.7,23.0,30.39,SSE,154,0.0,0.0,82,0.00,,,0.00,weatherlink.com 1.10,2013-01-07 13:00:00,
2013-01-07 08:15:00,27.7,24.0,30.40,SSE,153,0.0,1.0,84,0.00,,,0.00,weatherlink.com 1.10,2013-01-07 13:15:00,
2013-01-07 08:30:00,28.8,24.0,30.42,SSE,152,0.0,0.0,83,0.00,,,0.00,weatherlink.com 1.10,2013-01-07 13:30:00,
2013-01-07 08:45:00,29.7,25.0,30.43,SSE,152,0.0,0.0,83,0.00,,,0.00,weatherlink.com 1.10,2013-01-07 13:45:00,
2013-01-07 09:00:00,32.6,26.0,30.43,NNE,23,0.0,1.0,76,0.00,,,0.00,weatherlink.com 1.10,2013-01-07 14:00:00,
2013-01-07 09:15:00,34.8,27.0,30.44,SSW,210,0.0,2.0,72,0.00,,,0.00,weatherlink.com 1.10,2013-01-07 14:15:00,
2013-01-07 09:30:00,36.1,27.0,30.44,SSW,208,0.0,1.0,69,0.00,,,0.00,weatherlink.com 1.10,2013-01-07 14:30:00,
2013-01-07 09:45:00,37.6,27.0,30.45,SE,138,0.0,2.0,66,0.00,,,0.00,weatherlink.com 1.10,2013-01-07 14:45:00,
2013-01-07 10:00:00,38.3,26.0,30.46,SW,217,1.0,2.0,62,0.00,,,0.00,weatherlink.com 1.10,2013-01-07 15:00:00,
2013-01-07 10:15:00,39.1,27.0,30.46,SE,146,2.0,2.0,62,0.00,,,0.00,weatherlink.com 1.10,2013-01-07 15:15:00,
2013-01-07 10:30:00,40.1,27.0,30.46,South,190,0.0,3.0,61,0.00,,,0.00,weatherlink.com 1.10,2013-01-07 15:30:00,
2013-01-07 10:46:00,40.5,27.0,30.46,West,281,0.0,3.0,59,0.00,,,0.00,weatherlink.com 1.10,2013-01-07 15:46:00,
2013-01-07 11:01:00,41.1,28.0,30.46,South,183,0.0,4.0,59,0.00,,,0.00,weatherlink.com 1.10,2013-01-07 16:01:00,
2013-01-07 11:16:00,42.2,28.0,30.46,SE,129,3.0,6.0,58,0.00,,,0.00,weatherlink.com 1.10,2013-01-07 16:16:00,
2013-01-07 11:31:00,42.3,27.0,30.46,SE,129,2.0,4.0,55,0.00,,,0.00,weatherlink.com 1.10,2013-01-07 16:31:00,
2013-01-07 11:46:00,42.7,26.0,30.45,NE,34,2.0,3.0,53,0.00,,,0.00,weatherlink.com 1.10,2013-01-07 16:46:00,
2013-01-07 12:01:00,43.3,28.0,30.44,WNW,298,0.0,3.0,55,0.00,,,0.00,weatherlink.com 1.10,2013-01-07 17:01:00,
2013-01-07 12:16:00,44.7,27.0,30.43,SSE,153,1.0,3.0,51,0.00,,,0.00,weatherlink.com 1.10,2013-01-07 17:16:00,
2013-01-07 12:31:00,45.1,27.0,30.43,ESE,111,0.0,4.0,49,0.00,,,0.00,weatherlink.com 1.10,2013-01-07 17:31:00,
2013-01-07 12:46:00,45.4,28.0,30.42,SE,143,0.0,4.0,51,0.00,,,0.00,weatherlink.com 1.10,2013-01-07 17:46:00,
2013-01-07 13:01:00,46.6,27.0,30.41,SE,136,1.0,3.0,46,0.00,,,0.00,weatherlink.com 1.10,2013-01-07 18:01:00,
2013-01-07 13:16:00,47.1,25.0,30.41,SSW,193,1.0,4.0,43,0.00,,,0.00,weatherlink.com 1.10,2013-01-07 18:16:00,
2013-01-07 13:31:00,47.1,27.0,30.41,South,177,1.0,4.0,45,0.00,,,0.00,weatherlink.com 1.10,2013-01-07 18:31:00,
2013-01-07 13:46:00,46.9,26.0,30.41,WNW,300,2.0,3.0,45,0.00,,,0.00,weatherlink.com 1.10,2013-01-07 18:46:00,
2013-01-07 14:01:00,48.0,27.0,30.41,ESE,106,2.0,3.0,44,0.00,,,0.00,weatherlink.com 1.10,2013-01-07 19:01:00,
2013-01-07 14:16:00,48.6,27.0,30.40,NE,55,0.0,4.0,43,0.00,,,0.00,weatherlink.com 1.10,2013-01-07 19:16:00,
2013-01-07 14:32:00,48.9,28.0,30.40,SW,235,3.0,3.0,44,0.00,,,0.00,weatherlink.com 1.10,2013-01-07 19:32:00,
2013-01-07 14:46:00,49.4,27.0,30.40,West,269,0.0,3.0,42,0.00,,,0.00,weatherlink.com 1.10,2013-01-07 19:46:00,
2013-01-07 15:01:00,49.3,27.0,30.40,NNW,328,0.0,4.0,42,0.00,,,0.00,weatherlink.com 1.10,2013-01-07 20:01:00,
2013-01-07 15:16:00,50.1,27.0,30.41,SE,133,0.0,4.0,41,0.00,,,0.00,weatherlink.com 1.10,2013-01-07 20:16:00,
2013-01-07 15:31:00,49.7,27.0,30.41,South,169,2.0,3.0,41,0.00,,,0.00,weatherlink.com 1.10,2013-01-07 20:31:00,
2013-01-07 15:46:00,49.4,28.0,30.41,ESE,122,1.0,2.0,43,0.00,,,0.00,weatherlink.com 1.10,2013-01-07 20:46:00,
2013-01-07 16:01:00,48.5,27.0,30.41,SE,145,1.0,5.0,43,0.00,,,0.00,weatherlink.com 1.10,2013-01-07 21:01:00,
2013-01-07 16:16:00,48.3,27.0,30.41,SSE,149,0.0,3.0,44,0.00,,,0.00,weatherlink.com 1.10,2013-01-07 21:16:00,
2013-01-07 16:31:00,48.1,28.0,30.41,SE,124,0.0,2.0,46,0.00,,,0.00,weatherlink.com 1.10,2013-01-07 21:31:00,
2013-01-07 16:46:00,47.8,29.0,30.41,SE,124,0.0,0.0,48,0.00,,,0.00,weatherlink.com 1.10,2013-01-07 21:46:00,
2013-01-07 17:01:00,46.7,29.0,30.42,SSE,152,0.0,1.0,50,0.00,,,0.00,weatherlink.com 1.10,2013-01-07 22:01:00,
2013-01-07 17:16:00,44.1,28.0,30.42,SSE,152,0.0,0.0,54,0.00,,,0.00,weatherlink.com 1.10,2013-01-07 22:16:00,
2013-01-07 17:31:00,41.7,28.0,30.43,SSE,152,0.0,0.0,58,0.00,,,0.00,weatherlink.com 1.10,2013-01-07 22:31:00,
2013-01-07 17:46:00,40.4,27.0,30.43,SSE,152,0.0,0.0,59,0.00,,,0.00,weatherlink.com 1.10,2013-01-07 22:46:00,
2013-01-07 18:01:00,38.9,27.0,30.44,SSE,152,0.0,0.0,62,0.00,,,0.00,weatherlink.com 1.10,2013-01-07 23:01:00,
2013-01-07 18:16:00,38.1,27.0,30.45,SSE,152,0.0,0.0,65,0.00,,,0.00,weatherlink.com 1.10,2013-01-07 23:16:00,
2013-01-07 18:31:00,37.9,27.0,30.45,SSE,152,0.0,0.0,65,0.00,,,0.00,weatherlink.com 1.10,2013-01-07 23:31:00,
2013-01-07 18:46:00,36.9,26.0,30.45,SSE,152,0.0,0.0,66,0.00,,,0.00,weatherlink.com 1.10,2013-01-07 23:46:00,
2013-01-07 19:16:00,36.6,27.0,30.46,SSE,152,0.0,0.0,67,0.00,,,0.00,weatherlink.com 1.10,2013-01-08 00:16:00,
2013-01-07 19:31:00,35.9,27.0,30.45,SSE,152,0.0,0.0,69,0.00,,,0.00,weatherlink.com 1.10,2013-01-08 00:31:00,
2013-01-07 19:46:00,35.9,27.0,30.45,SSE,152,0.0,0.0,69,0.00,,,0.00,weatherlink.com 1.10,2013-01-08 00:46:00,
2013-01-07 20:01:00,35.4,27.0,30.45,SSE,152,0.0,0.0,70,0.00,,,0.00,weatherlink.com 1.10,2013-01-08 01:01:00,
2013-01-07 20:16:00,35.0,26.0,30.45,SSE,153,0.0,0.0,71,0.00,,,0.00,weatherlink.com 1.10,2013-01-08 01:16:00,
2013-01-07 20:31:00,34.1,26.0,30.45,SSE,153,0.0,0.0,73,0.00,,,0.00,weatherlink.com 1.10,2013-01-08 01:31:00,
2013-01-07 20:46:00,33.2,26.0,30.45,SSE,153,0.0,0.0,74,0.00,,,0.00,weatherlink.com 1.10,2013-01-08 01:46:00,
2013-01-07 21:01:00,33.0,26.0,30.45,SSE,152,0.0,0.0,75,0.00,,,0.00,weatherlink.com 1.10,2013-01-08 02:01:00,
2013-01-07 21:16:00,31.6,25.0,30.44,SSE,153,0.0,0.0,77,0.00,,,0.00,weatherlink.com 1.10,2013-01-08 02:16:00,
2013-01-07 21:31:00,30.6,25.0,30.44,SSE,152,0.0,0.0,80,0.00,,,0.00,weatherlink.com 1.10,2013-01-08 02:31:00,
2013-01-07 21:46:00,31.0,25.0,30.44,SSE,152,0.0,0.0,79,0.00,,,0.00,weatherlink.com 1.10,2013-01-08 02:46:00,
2013-01-07 22:01:00,31.2,25.0,30.44,SSE,153,0.0,0.0,78,0.00,,,0.00,weatherlink.com 1.10,2013-01-08 03:01:00,
2013-01-07 22:16:00,29.3,24.0,30.44,SSE,152,0.0,0.0,82,0.00,,,0.00,weatherlink.com 1.10,2013-01-08 03:16:00,
2013-01-07 22:31:00,28.4,25.0,30.45,SSE,152,0.0,0.0,85,0.00,,,0.00,weatherlink.com 1.10,2013-01-08 03:31:00,
2013-01-07 22:46:00,28.0,24.0,30.45,SSE,152,0.0,0.0,86,0.00,,,0.00,weatherlink.com 1.10,2013-01-08 03:46:00,
2013-01-07 23:01:00,28.3,25.0,30.46,SSE,152,0.0,0.0,86,0.00,,,0.00,weatherlink.com 1.10,2013-01-08 04:01:00,
2013-01-07 23:16:00,29.4,25.0,30.46,SSE,152,0.0,0.0,83,0.00,,,0.00,weatherlink.com 1.10,2013-01-08 04:16:00,
2013-01-07 23:31:00,29.0,25.0,30.45,SSE,153,0.0,0.0,83,0.00,,,0.00,weatherlink.com 1.10,2013-01-08 04:31:00,
2013-01-07 23:46:00,28.3,24.0,30.46,SSE,153,0.0,0.0,85,0.00,,,0.00,weatherlink.com 1.10,2013-01-08 04:46:00,